Anthon, Iowa
Current Conditions -  °F | °C
As of 6:52 PM on Wednesday 17 Dec 2014 (Local Time) from KSUX Reporting Station
Overcast Overcast  
Wind Chill: 18°   Ceiling: 8000
Heat Index: 24°   Visibility: 10mi
Dew Point: 16°   Wind: 5mph
Humidity: 71%   Direction: 60°ENE
Pressure: 30.28"   Gusts: NA
Location:  42.39°N, 95.87°W
Report Text: KSUX 180052Z AUTO 06004KT 10SM OVC080 M04/M09 A3028 RMK AO2 SLP272 T10441089
Loading
Personal Weather Stations






























Interactive Weather Map New forecast layout! Learn more

10-Day Weather Forecast

Advertisements
Track Severe Weather on mobile